Sedgwick, Maine
Current Conditions -  °F | °C
As of 4:55 PM on Friday 31 Oct 2014 (Local Time) from KBHB Reporting Station
Overcast Overcast  
Wind Chill: 46°   Ceiling: 4300
Heat Index: 48°   Visibility: 10mi
Dew Point: 37°   Wind: 5mph
Humidity: 66%   Direction: 360°N
Pressure: 30.02"   Gusts: NA
Location:  44.3°N, 68.62°W
Report Text: KBHB 312055Z AUTO 36004KT 10SM BKN043 OVC050 09/03 A3002 RMK AO1 52003
Loading
Personal Weather Stations






























Interactive Weather Map
Tropical Storm Tracking
New forecast layout! Learn more

10-Day Weather Forecast

Advertisements
Track Severe Weather on mobile